Currently 52°F in Temecula, California, USA
52°F
52°F / 52°F
calm
0.08"
Tuesday, April 7, 2020 3:53 AM PDT

Temecula, California Weather Summary
Last 36 Hours

Temperature Winds Hourly Humidity Dewpoint
Time Report Norm Report Norm Max Gusts Precip. Rpt. Norm Rpt. Norm Pressure
1Tue 03:53 AM  51.8°F  50°F  calm  1 mph  none  0.00"  100%  89%  52°F  47°F  30.02"
3Tue 03:22 AM  51.7°F  51°F  calm  2 mph  none  ----  100%  89%  52°F  47°F  30.02"
Tue 03:00 AM  51.9°F  51°F  calm  1 mph  none  0.01"  100%  88%  52°F  47°F  30.03"
Tue 02:00 AM  52.0°F  52°F  calm  1 mph  none  0.01"  100%  87%  52°F  48°F  30.03"
2Tue 01:00 AM  52.2°F  52°F  calm  2 mph  none  0.06"  100%  86%  52°F  48°F  30.03"
Tue 12:00 AM  52.0°F  53°F  calm  2 mph  10 mph  0.10"  100%  85%  52°F  49°F  30.03"
Mon 11:00 PM  52.3°F  54°F  2 mph W  2 mph  9 mph  0.16"  100%  82%  52°F  49°F  30.02"
Mon 10:00 PM  52.7°F  56°F  calm  3 mph  9 mph  0.17"  100%  80%  53°F  49°F  30.01"
Mon 09:00 PM  52.4°F  57°F  calm  3 mph  12 mph  0.14"  100%  76%  52°F  49°F  29.98"
Mon 08:00 PM  52.4°F  59°F  calm  5 mph  10 mph  0.17"  100%  71%  52°F  50°F  29.97"
Mon 07:00 PM  53.0°F  62°F  3 mph W  6 mph  15 mph  0.16"  100%  65%  53°F  50°F  29.96"
Mon 06:00 PM  53.7°F  66°F  4 mph SW  8 mph  16 mph  0.04"  99%  57%  54°F  50°F  29.94"
Mon 05:00 PM  53.4°F  69°F  6 mph SW  9 mph  26 mph  0.06"  99%  52%  53°F  50°F  29.93"
Mon 04:00 PM  54.4°F  71°F  11 mph SW  9 mph  21 mph  0.11"  99%  49%  54°F  50°F  29.93"
Mon 03:00 PM  54.5°F  71°F  9 mph SW  9 mph  22 mph  0.08"  99%  47%  54°F  50°F  29.93"
Mon 02:00 PM  55.1°F  71°F  8 mph SW  8 mph  20 mph  0.04"  99%  47%  55°F  49°F  29.94"
Mon 01:00 PM  55.1°F  70°F  8 mph S  7 mph  24 mph  0.06"  99%  48%  55°F  49°F  29.94"
Mon 12:00 PM  54.6°F  67°F  6 mph SW  6 mph  19 mph  0.08"  99%  53%  54°F  49°F  29.93"
Mon 11:00 AM  54.2°F  64°F  10 mph S  5 mph  23 mph  0.06"  99%  60%  54°F  49°F  29.93"
Mon 10:00 AM  53.3°F  59°F  9 mph S  4 mph  19 mph  0.02"  99%  72%  53°F  49°F  29.91"
Mon 09:00 AM  52.9°F  54°F  7 mph SW  3 mph  18 mph  0.02"  99%  82%  53°F  49°F  29.90"
Mon 08:00 AM  51.9°F  50°F  8 mph S  2 mph  16 mph  0.05"  99%  89%  52°F  47°F  29.90"
Mon 07:00 AM  51.4°F  49°F  4 mph SW  1 mph  15 mph  0.02"  99%  91%  51°F  46°F  29.88"
Mon 06:00 AM  51.3°F  49°F  5 mph S  1 mph  16 mph  0.00"  99%  91%  51°F  46°F  29.87"
Mon 05:00 AM  51.3°F  49°F  7 mph SW  1 mph  18 mph  0.00"  98%  90%  51°F  47°F  29.87"
Mon 04:00 AM  51.0°F  50°F  7 mph SW  1 mph  17 mph  0.08"  98%  89%  51°F  47°F  29.88"
Mon 03:00 AM  51.7°F  51°F  6 mph SW  1 mph  15 mph  0.06"  98%  88%  51°F  47°F  29.89"
Mon 02:00 AM  51.9°F  51°F  5 mph S  1 mph  15 mph  0.02"  97%  87%  51°F  48°F  29.90"
Mon 01:00 AM  52.8°F  52°F  7 mph SW  2 mph  13 mph  0.00"  95%  86%  51°F  48°F  29.90"
Mon 12:00 AM  53.3°F  53°F  4 mph S  2 mph  13 mph  0.00"  94%  84%  52°F  48°F  29.91"
Sun 11:00 PM  53.4°F  54°F  3 mph S  2 mph  14 mph  0.00"  92%  82%  51°F  49°F  29.91"
Sun 10:00 PM  53.4°F  56°F  6 mph S  3 mph  12 mph  0.00"  90%  79%  51°F  49°F  29.91"
Sun 09:00 PM  54.2°F  57°F  4 mph S  3 mph  13 mph  0.00"  87%  75%  50°F  49°F  29.89"
Sun 08:00 PM  54.9°F  59°F  4 mph SW  5 mph  16 mph  0.00"  86%  71%  51°F  49°F  29.88"
Sun 07:00 PM  56.2°F  62°F  3 mph SW  6 mph  13 mph  0.00"  83%  65%  51°F  50°F  29.86"
Sun 06:00 PM  57.5°F  66°F  8 mph SW  8 mph  17 mph  0.00"  81%  57%  52°F  50°F  29.87"
Sun 05:00 PM  58.1°F  69°F  6 mph W  9 mph  18 mph  0.00"  80%  52%  52°F  50°F  29.85"
Sun 04:00 PM  59.7°F  71°F  9 mph SW  9 mph  22 mph  0.00"  77%  49%  52°F  50°F  29.84"

  1. Current weather data. No green row appears if the current weather data is also the high or low for the current day.
  2. High temperature for the current day.
  3. Low temperature for the current day.

The Temecula weather pages are a service of WeatherCurrents. Temecula, California is located in the Temecula Valley, in southwestern Riverside County, along the Interstate 15 highway. The Temecula Valley's rolling hills are home to the Temecula wine country, vineyards, golf courses, a casino resort, and Old Town Temecula.
Copyright ©2020  WeatherCurrents. All rights reserved. - Submit questions and comments - Privacy Policy

This page automatically refreshes every 10 minutes.